Terminal Aerodrome Forecast
Issued by NWS Wilmington, OH

Current Version | Previous Version | Text Only | Print | Product List | Glossary Off
Versions: 1 2 3 4 5 6 7 8 9 10 11 12 13 14 15 16 17 18 19 20 21 22 23

090
FTUS41 KILN 181720
TAFILN
TAF
KILN 181720Z 1818/1918 21005KT P6SM SCT045 BKN080
     FM182000 VRB04KT P6SM VCTS SCT040CB BKN080
     FM190100 VRB03KT P6SM BKN100
     FM191000 VRB02KT P6SM OVC050
     FM191400 VRB04KT P6SM -SHRA OVC050=

USA.gov is the U.S. government's official web portal to all federal, state and local government web resources and services.